sensor_id;sensor_type;location;lat;lon;timestamp;P1;durP1;ratioP1;P2;durP2;ratioP2
10281;SDS011;5186;59.472;18.048;2023-07-13T00:01:17;3.23;;;2.93;;
10281;SDS011;5186;59.472;18.048;2023-07-13T00:03:42;3.17;;;2.87;;
10281;SDS011;5186;59.472;18.048;2023-07-13T00:06:08;2.90;;;2.70;;
10281;SDS011;5186;59.472;18.048;2023-07-13T00:08:34;2.90;;;2.60;;
10281;SDS011;5186;59.472;18.048;2023-07-13T00:11:01;2.87;;;2.67;;
10281;SDS011;5186;59.472;18.048;2023-07-13T00:13:27;3.10;;;2.80;;
10281;SDS011;5186;59.472;18.048;2023-07-13T00:15:54;2.87;;;2.67;;
10281;SDS011;5186;59.472;18.048;2023-07-13T00:18:21;4.70;;;2.70;;
10281;SDS011;5186;59.472;18.048;2023-07-13T00:20:46;2.70;;;2.50;;
10281;SDS011;5186;59.472;18.048;2023-07-13T00:23:13;3.77;;;2.40;;
10281;SDS011;5186;59.472;18.048;2023-07-13T00:25:38;4.53;;;2.60;;
10281;SDS011;5186;59.472;18.048;2023-07-13T00:28:04;3.80;;;2.80;;
10281;SDS011;5186;59.472;18.048;2023-07-13T00:30:29;3.13;;;2.60;;
10281;SDS011;5186;59.472;18.048;2023-07-13T00:32:55;2.77;;;2.57;;
10281;SDS011;5186;59.472;18.048;2023-07-13T00:35:20;3.10;;;2.70;;
10281;SDS011;5186;59.472;18.048;2023-07-13T00:37:46;4.00;;;2.80;;
10281;SDS011;5186;59.472;18.048;2023-07-13T00:40:12;2.60;;;2.40;;
10281;SDS011;5186;59.472;18.048;2023-07-13T00:42:39;3.33;;;2.60;;
10281;SDS011;5186;59.472;18.048;2023-07-13T00:45:07;2.80;;;2.50;;
10281;SDS011;5186;59.472;18.048;2023-07-13T00:47:36;3.00;;;2.70;;
10281;SDS011;5186;59.472;18.048;2023-07-13T00:50:02;2.90;;;2.50;;
10281;SDS011;5186;59.472;18.048;2023-07-13T00:52:28;3.07;;;2.87;;
10281;SDS011;5186;59.472;18.048;2023-07-13T00:54:55;3.13;;;2.70;;
10281;SDS011;5186;59.472;18.048;2023-07-13T00:57:21;3.73;;;2.70;;
10281;SDS011;5186;59.472;18.048;2023-07-13T00:59:47;4.40;;;2.93;;
10281;SDS011;5186;59.472;18.048;2023-07-13T01:02:16;3.13;;;2.83;;
10281;SDS011;5186;59.472;18.048;2023-07-13T01:04:42;3.73;;;2.80;;
10281;SDS011;5186;59.472;18.048;2023-07-13T01:07:09;4.23;;;2.80;;
10281;SDS011;5186;59.472;18.048;2023-07-13T01:09:35;3.00;;;2.80;;
10281;SDS011;5186;59.472;18.048;2023-07-13T01:12:01;3.90;;;3.03;;
10281;SDS011;5186;59.472;18.048;2023-07-13T01:14:28;2.87;;;2.57;;
10281;SDS011;5186;59.472;18.048;2023-07-13T01:16:53;3.60;;;3.00;;
10281;SDS011;5186;59.472;18.048;2023-07-13T01:22:00;3.77;;;2.60;;
10281;SDS011;5186;59.472;18.048;2023-07-13T01:24:33;4.50;;;2.70;;
10281;SDS011;5186;59.472;18.048;2023-07-13T01:27:03;2.77;;;2.57;;
10281;SDS011;5186;59.472;18.048;2023-07-13T01:29:30;5.50;;;2.60;;
10281;SDS011;5186;59.472;18.048;2023-07-13T01:31:57;3.50;;;2.80;;
10281;SDS011;5186;59.472;18.048;2023-07-13T01:34:22;4.13;;;2.70;;
10281;SDS011;5186;59.472;18.048;2023-07-13T01:36:48;3.13;;;2.83;;
10281;SDS011;5186;59.472;18.048;2023-07-13T01:39:14;2.60;;;2.40;;
10281;SDS011;5186;59.472;18.048;2023-07-13T01:41:40;3.27;;;2.70;;
10281;SDS011;5186;59.472;18.048;2023-07-13T01:44:06;3.00;;;2.63;;
10281;SDS011;5186;59.472;18.048;2023-07-13T01:46:31;3.47;;;2.70;;
10281;SDS011;5186;59.472;18.048;2023-07-13T01:48:57;3.90;;;2.60;;
10281;SDS011;5186;59.472;18.048;2023-07-13T01:51:23;3.23;;;2.90;;
10281;SDS011;5186;59.472;18.048;2023-07-13T01:53:49;3.80;;;2.63;;
10281;SDS011;5186;59.472;18.048;2023-07-13T01:56:15;4.30;;;2.80;;
10281;SDS011;5186;59.472;18.048;2023-07-13T01:58:40;3.53;;;3.10;;
10281;SDS011;5186;59.472;18.048;2023-07-13T02:01:06;3.63;;;2.80;;
10281;SDS011;5186;59.472;18.048;2023-07-13T02:03:31;3.70;;;2.70;;
10281;SDS011;5186;59.472;18.048;2023-07-13T02:05:57;3.27;;;2.67;;
10281;SDS011;5186;59.472;18.048;2023-07-13T02:08:22;3.20;;;2.90;;
10281;SDS011;5186;59.472;18.048;2023-07-13T02:10:48;2.70;;;2.50;;
10281;SDS011;5186;59.472;18.048;2023-07-13T02:13:14;4.67;;;2.50;;
10281;SDS011;5186;59.472;18.048;2023-07-13T02:15:39;4.50;;;3.30;;
10281;SDS011;5186;59.472;18.048;2023-07-13T02:18:07;4.23;;;2.77;;
10281;SDS011;5186;59.472;18.048;2023-07-13T02:20:33;4.00;;;2.90;;
10281;SDS011;5186;59.472;18.048;2023-07-13T02:22:59;2.83;;;2.53;;
10281;SDS011;5186;59.472;18.048;2023-07-13T02:25:24;4.23;;;2.70;;
10281;SDS011;5186;59.472;18.048;2023-07-13T02:27:51;3.03;;;2.70;;
10281;SDS011;5186;59.472;18.048;2023-07-13T02:30:17;3.60;;;2.80;;
10281;SDS011;5186;59.472;18.048;2023-07-13T02:32:43;3.13;;;2.70;;
10281;SDS011;5186;59.472;18.048;2023-07-13T02:35:09;2.67;;;2.47;;
10281;SDS011;5186;59.472;18.048;2023-07-13T02:37:35;3.40;;;2.87;;
10281;SDS011;5186;59.472;18.048;2023-07-13T02:40:00;5.33;;;3.30;;
10281;SDS011;5186;59.472;18.048;2023-07-13T02:42:33;3.07;;;2.57;;
10281;SDS011;5186;59.472;18.048;2023-07-13T02:44:58;4.03;;;2.93;;
10281;SDS011;5186;59.472;18.048;2023-07-13T02:47:24;4.40;;;3.37;;
10281;SDS011;5186;59.472;18.048;2023-07-13T02:49:49;3.93;;;3.07;;
10281;SDS011;5186;59.472;18.048;2023-07-13T02:52:15;5.53;;;2.87;;
10281;SDS011;5186;59.472;18.048;2023-07-13T02:54:41;3.57;;;2.83;;
10281;SDS011;5186;59.472;18.048;2023-07-13T02:57:06;5.33;;;2.80;;
10281;SDS011;5186;59.472;18.048;2023-07-13T02:59:32;4.37;;;3.20;;
10281;SDS011;5186;59.472;18.048;2023-07-13T03:01:57;3.00;;;2.70;;
10281;SDS011;5186;59.472;18.048;2023-07-13T03:04:23;3.20;;;2.90;;
10281;SDS011;5186;59.472;18.048;2023-07-13T03:06:48;5.70;;;3.07;;
10281;SDS011;5186;59.472;18.048;2023-07-13T03:09:14;4.67;;;2.83;;
10281;SDS011;5186;59.472;18.048;2023-07-13T03:11:40;4.33;;;2.83;;
10281;SDS011;5186;59.472;18.048;2023-07-13T03:14:05;3.27;;;2.70;;
10281;SDS011;5186;59.472;18.048;2023-07-13T03:16:31;3.30;;;2.97;;
10281;SDS011;5186;59.472;18.048;2023-07-13T03:18:57;3.30;;;2.67;;
10281;SDS011;5186;59.472;18.048;2023-07-13T03:21:22;3.40;;;2.87;;
10281;SDS011;5186;59.472;18.048;2023-07-13T03:23:48;4.37;;;3.20;;
10281;SDS011;5186;59.472;18.048;2023-07-13T03:26:15;3.23;;;2.93;;
10281;SDS011;5186;59.472;18.048;2023-07-13T03:28:42;4.07;;;3.10;;
10281;SDS011;5186;59.472;18.048;2023-07-13T03:31:12;4.80;;;3.30;;
10281;SDS011;5186;59.472;18.048;2023-07-13T03:33:41;5.23;;;3.10;;
10281;SDS011;5186;59.472;18.048;2023-07-13T03:36:07;4.70;;;3.27;;
10281;SDS011;5186;59.472;18.048;2023-07-13T03:38:38;5.37;;;3.10;;
10281;SDS011;5186;59.472;18.048;2023-07-13T03:41:03;4.07;;;3.03;;
10281;SDS011;5186;59.472;18.048;2023-07-13T03:43:29;3.50;;;3.13;;
10281;SDS011;5186;59.472;18.048;2023-07-13T03:45:55;4.53;;;3.20;;
10281;SDS011;5186;59.472;18.048;2023-07-13T03:48:20;6.00;;;3.50;;
10281;SDS011;5186;59.472;18.048;2023-07-13T03:50:46;5.00;;;4.00;;
10281;SDS011;5186;59.472;18.048;2023-07-13T03:53:13;4.83;;;3.57;;
10281;SDS011;5186;59.472;18.048;2023-07-13T03:55:38;3.37;;;3.07;;
10281;SDS011;5186;59.472;18.048;2023-07-13T03:58:23;5.07;;;3.57;;
10281;SDS011;5186;59.472;18.048;2023-07-13T04:00:57;4.63;;;3.40;;
10281;SDS011;5186;59.472;18.048;2023-07-13T04:03:23;5.57;;;3.37;;
10281;SDS011;5186;59.472;18.048;2023-07-13T04:05:49;5.77;;;3.77;;
10281;SDS011;5186;59.472;18.048;2023-07-13T04:08:15;5.00;;;3.70;;
10281;SDS011;5186;59.472;18.048;2023-07-13T04:10:42;4.30;;;3.43;;
10281;SDS011;5186;59.472;18.048;2023-07-13T04:13:08;4.03;;;3.17;;
10281;SDS011;5186;59.472;18.048;2023-07-13T04:15:33;4.77;;;3.13;;
10281;SDS011;5186;59.472;18.048;2023-07-13T04:17:59;3.93;;;3.27;;
10281;SDS011;5186;59.472;18.048;2023-07-13T04:20:25;4.50;;;3.10;;
10281;SDS011;5186;59.472;18.048;2023-07-13T04:22:51;4.83;;;2.97;;
10281;SDS011;5186;59.472;18.048;2023-07-13T04:25:18;3.80;;;3.23;;
10281;SDS011;5186;59.472;18.048;2023-07-13T04:27:45;7.60;;;3.30;;
10281;SDS011;5186;59.472;18.048;2023-07-13T04:30:11;6.00;;;3.30;;
10281;SDS011;5186;59.472;18.048;2023-07-13T04:32:36;6.40;;;3.37;;
10281;SDS011;5186;59.472;18.048;2023-07-13T04:35:02;4.47;;;2.93;;
10281;SDS011;5186;59.472;18.048;2023-07-13T04:37:28;6.43;;;3.07;;
10281;SDS011;5186;59.472;18.048;2023-07-13T04:39:54;3.73;;;2.87;;
10281;SDS011;5186;59.472;18.048;2023-07-13T04:42:20;4.13;;;2.80;;
10281;SDS011;5186;59.472;18.048;2023-07-13T04:44:49;3.20;;;2.90;;
10281;SDS011;5186;59.472;18.048;2023-07-13T04:47:15;4.43;;;2.80;;
10281;SDS011;5186;59.472;18.048;2023-07-13T04:49:41;5.57;;;3.03;;
10281;SDS011;5186;59.472;18.048;2023-07-13T04:52:07;4.10;;;2.90;;
10281;SDS011;5186;59.472;18.048;2023-07-13T04:54:33;2.53;;;2.33;;
10281;SDS011;5186;59.472;18.048;2023-07-13T04:56:59;3.07;;;2.20;;
10281;SDS011;5186;59.472;18.048;2023-07-13T04:59:25;3.93;;;2.30;;
10281;SDS011;5186;59.472;18.048;2023-07-13T05:01:50;3.33;;;2.40;;
10281;SDS011;5186;59.472;18.048;2023-07-13T05:04:16;3.70;;;2.27;;
10281;SDS011;5186;59.472;18.048;2023-07-13T05:06:42;5.93;;;2.60;;
10281;SDS011;5186;59.472;18.048;2023-07-13T05:09:07;4.10;;;2.47;;
10281;SDS011;5186;59.472;18.048;2023-07-13T05:11:33;3.77;;;2.30;;
10281;SDS011;5186;59.472;18.048;2023-07-13T05:13:59;4.37;;;2.80;;
10281;SDS011;5186;59.472;18.048;2023-07-13T05:16:26;5.73;;;2.60;;
10281;SDS011;5186;59.472;18.048;2023-07-13T05:18:53;5.27;;;2.40;;
10281;SDS011;5186;59.472;18.048;2023-07-13T05:21:19;4.17;;;2.70;;
10281;SDS011;5186;59.472;18.048;2023-07-13T05:23:45;2.60;;;2.30;;
10281;SDS011;5186;59.472;18.048;2023-07-13T05:26:11;3.60;;;2.43;;
10281;SDS011;5186;59.472;18.048;2023-07-13T05:28:37;4.47;;;2.50;;
10281;SDS011;5186;59.472;18.048;2023-07-13T05:31:03;4.33;;;2.40;;
10281;SDS011;5186;59.472;18.048;2023-07-13T05:33:29;3.53;;;2.27;;
10281;SDS011;5186;59.472;18.048;2023-07-13T05:35:55;6.60;;;2.37;;
10281;SDS011;5186;59.472;18.048;2023-07-13T05:38:21;5.03;;;2.10;;
10281;SDS011;5186;59.472;18.048;2023-07-13T05:40:47;2.77;;;2.07;;
10281;SDS011;5186;59.472;18.048;2023-07-13T05:43:13;3.77;;;2.47;;
10281;SDS011;5186;59.472;18.048;2023-07-13T05:45:40;4.83;;;2.30;;
10281;SDS011;5186;59.472;18.048;2023-07-13T05:48:06;4.47;;;2.03;;
10281;SDS011;5186;59.472;18.048;2023-07-13T05:50:31;3.17;;;2.00;;
10281;SDS011;5186;59.472;18.048;2023-07-13T05:52:57;6.50;;;2.10;;
10281;SDS011;5186;59.472;18.048;2023-07-13T05:55:23;5.47;;;2.50;;
10281;SDS011;5186;59.472;18.048;2023-07-13T05:57:48;2.90;;;1.93;;
10281;SDS011;5186;59.472;18.048;2023-07-13T06:00:14;3.10;;;2.00;;
10281;SDS011;5186;59.472;18.048;2023-07-13T06:02:41;4.30;;;2.30;;
10281;SDS011;5186;59.472;18.048;2023-07-13T06:05:07;6.97;;;2.23;;
10281;SDS011;5186;59.472;18.048;2023-07-13T06:07:33;3.60;;;2.03;;
10281;SDS011;5186;59.472;18.048;2023-07-13T06:09:58;4.23;;;2.10;;
10281;SDS011;5186;59.472;18.048;2023-07-13T06:12:24;6.80;;;1.90;;
10281;SDS011;5186;59.472;18.048;2023-07-13T06:14:50;2.07;;;1.67;;
10281;SDS011;5186;59.472;18.048;2023-07-13T06:17:16;2.60;;;1.80;;
10281;SDS011;5186;59.472;18.048;2023-07-13T06:19:41;4.87;;;1.90;;
10281;SDS011;5186;59.472;18.048;2023-07-13T06:22:07;3.20;;;1.93;;
10281;SDS011;5186;59.472;18.048;2023-07-13T06:24:32;4.97;;;1.80;;
10281;SDS011;5186;59.472;18.048;2023-07-13T06:26:58;4.37;;;1.90;;
10281;SDS011;5186;59.472;18.048;2023-07-13T06:29:24;3.10;;;1.90;;
10281;SDS011;5186;59.472;18.048;2023-07-13T06:31:49;3.77;;;1.80;;
10281;SDS011;5186;59.472;18.048;2023-07-13T06:34:15;4.67;;;2.10;;
10281;SDS011;5186;59.472;18.048;2023-07-13T06:36:40;2.53;;;1.83;;
10281;SDS011;5186;59.472;18.048;2023-07-13T06:39:06;3.50;;;1.90;;
10281;SDS011;5186;59.472;18.048;2023-07-13T06:41:32;5.60;;;2.00;;
10281;SDS011;5186;59.472;18.048;2023-07-13T06:43:58;4.30;;;1.77;;
10281;SDS011;5186;59.472;18.048;2023-07-13T06:46:24;2.80;;;1.50;;
10281;SDS011;5186;59.472;18.048;2023-07-13T06:48:49;2.83;;;1.60;;
10281;SDS011;5186;59.472;18.048;2023-07-13T06:51:15;4.17;;;1.70;;
10281;SDS011;5186;59.472;18.048;2023-07-13T06:53:41;2.97;;;1.50;;
10281;SDS011;5186;59.472;18.048;2023-07-13T06:56:08;3.40;;;1.60;;
10281;SDS011;5186;59.472;18.048;2023-07-13T06:58:35;4.90;;;1.70;;
10281;SDS011;5186;59.472;18.048;2023-07-13T07:01:01;3.40;;;1.70;;
10281;SDS011;5186;59.472;18.048;2023-07-13T07:03:27;5.60;;;1.93;;
10281;SDS011;5186;59.472;18.048;2023-07-13T07:05:52;3.43;;;1.70;;
10281;SDS011;5186;59.472;18.048;2023-07-13T07:08:18;2.10;;;1.40;;
10281;SDS011;5186;59.472;18.048;2023-07-13T07:10:43;3.77;;;1.90;;
10281;SDS011;5186;59.472;18.048;2023-07-13T07:13:10;3.27;;;1.80;;
10281;SDS011;5186;59.472;18.048;2023-07-13T07:15:36;3.57;;;1.50;;
10281;SDS011;5186;59.472;18.048;2023-07-13T07:18:01;3.77;;;1.73;;
10281;SDS011;5186;59.472;18.048;2023-07-13T07:20:27;3.63;;;1.80;;
10281;SDS011;5186;59.472;18.048;2023-07-13T07:22:53;3.13;;;1.60;;
10281;SDS011;5186;59.472;18.048;2023-07-13T07:25:19;3.23;;;1.77;;
10281;SDS011;5186;59.472;18.048;2023-07-13T07:27:44;2.63;;;1.67;;
10281;SDS011;5186;59.472;18.048;2023-07-13T07:30:10;3.30;;;1.60;;
10281;SDS011;5186;59.472;18.048;2023-07-13T07:32:37;2.17;;;1.53;;
10281;SDS011;5186;59.472;18.048;2023-07-13T07:35:02;2.83;;;1.40;;
10281;SDS011;5186;59.472;18.048;2023-07-13T07:37:28;7.20;;;1.57;;
10281;SDS011;5186;59.472;18.048;2023-07-13T07:39:54;3.93;;;1.50;;
10281;SDS011;5186;59.472;18.048;2023-07-13T07:42:19;2.37;;;1.50;;
10281;SDS011;5186;59.472;18.048;2023-07-13T07:44:45;5.93;;;1.70;;
10281;SDS011;5186;59.472;18.048;2023-07-13T07:47:10;4.03;;;1.50;;
10281;SDS011;5186;59.472;18.048;2023-07-13T07:49:36;5.20;;;1.60;;
10281;SDS011;5186;59.472;18.048;2023-07-13T07:52:03;4.20;;;1.57;;
10281;SDS011;5186;59.472;18.048;2023-07-13T07:54:29;1.33;;;1.23;;
10281;SDS011;5186;59.472;18.048;2023-07-13T07:56:55;5.23;;;1.70;;
10281;SDS011;5186;59.472;18.048;2023-07-13T07:59:20;4.23;;;1.30;;
10281;SDS011;5186;59.472;18.048;2023-07-13T08:01:46;2.20;;;1.20;;
10281;SDS011;5186;59.472;18.048;2023-07-13T08:04:13;3.23;;;1.33;;
10281;SDS011;5186;59.472;18.048;2023-07-13T08:06:38;3.97;;;1.50;;
10281;SDS011;5186;59.472;18.048;2023-07-13T08:09:04;3.83;;;1.50;;
10281;SDS011;5186;59.472;18.048;2023-07-13T08:11:29;2.70;;;1.20;;
10281;SDS011;5186;59.472;18.048;2023-07-13T08:13:55;1.77;;;1.23;;
10281;SDS011;5186;59.472;18.048;2023-07-13T08:16:21;4.17;;;1.37;;
10281;SDS011;5186;59.472;18.048;2023-07-13T08:18:47;2.80;;;1.40;;
10281;SDS011;5186;59.472;18.048;2023-07-13T08:21:13;4.47;;;1.57;;
10281;SDS011;5186;59.472;18.048;2023-07-13T08:23:39;3.80;;;1.40;;
10281;SDS011;5186;59.472;18.048;2023-07-13T08:26:04;3.97;;;1.40;;
10281;SDS011;5186;59.472;18.048;2023-07-13T08:28:30;3.33;;;1.37;;
10281;SDS011;5186;59.472;18.048;2023-07-13T08:31:01;3.20;;;1.30;;
10281;SDS011;5186;59.472;18.048;2023-07-13T08:33:28;5.83;;;2.00;;
10281;SDS011;5186;59.472;18.048;2023-07-13T08:35:53;4.43;;;1.50;;
10281;SDS011;5186;59.472;18.048;2023-07-13T08:38:19;4.37;;;1.40;;
10281;SDS011;5186;59.472;18.048;2023-07-13T08:40:48;4.17;;;1.50;;
10281;SDS011;5186;59.472;18.048;2023-07-13T08:43:18;2.87;;;1.40;;
10281;SDS011;5186;59.472;18.048;2023-07-13T08:45:51;4.63;;;1.43;;
10281;SDS011;5186;59.472;18.048;2023-07-13T08:48:35;2.80;;;1.27;;
10281;SDS011;5186;59.472;18.048;2023-07-13T08:51:17;2.53;;;1.30;;
10281;SDS011;5186;59.472;18.048;2023-07-13T08:53:56;2.17;;;1.30;;
10281;SDS011;5186;59.472;18.048;2023-07-13T08:56:29;3.33;;;1.60;;
10281;SDS011;5186;59.472;18.048;2023-07-13T08:58:57;3.80;;;1.40;;
10281;SDS011;5186;59.472;18.048;2023-07-13T09:01:31;3.03;;;1.20;;
10281;SDS011;5186;59.472;18.048;2023-07-13T09:04:41;4.03;;;1.20;;
10281;SDS011;5186;59.472;18.048;2023-07-13T09:12:22;3.80;;;1.30;;
10281;SDS011;5186;59.472;18.048;2023-07-13T09:14:56;1.63;;;1.10;;
10281;SDS011;5186;59.472;18.048;2023-07-13T09:17:25;3.60;;;1.37;;
10281;SDS011;5186;59.472;18.048;2023-07-13T09:19:59;5.00;;;1.30;;
10281;SDS011;5186;59.472;18.048;2023-07-13T09:22:32;3.77;;;1.37;;
10281;SDS011;5186;59.472;18.048;2023-07-13T09:27:41;3.47;;;1.10;;
10281;SDS011;5186;59.472;18.048;2023-07-13T09:32:42;2.33;;;1.00;;
10281;SDS011;5186;59.472;18.048;2023-07-13T09:35:16;2.40;;;1.27;;
10281;SDS011;5186;59.472;18.048;2023-07-13T09:37:45;4.00;;;1.37;;
10281;SDS011;5186;59.472;18.048;2023-07-13T09:40:15;2.30;;;1.23;;
10281;SDS011;5186;59.472;18.048;2023-07-13T09:42:50;2.13;;;1.20;;
10281;SDS011;5186;59.472;18.048;2023-07-13T09:45:26;1.50;;;1.30;;
10281;SDS011;5186;59.472;18.048;2023-07-13T09:47:58;4.37;;;1.07;;
10281;SDS011;5186;59.472;18.048;2023-07-13T09:50:28;3.93;;;1.37;;
10281;SDS011;5186;59.472;18.048;2023-07-13T09:52:54;3.40;;;1.40;;
10281;SDS011;5186;59.472;18.048;2023-07-13T09:57:57;3.13;;;1.37;;
10281;SDS011;5186;59.472;18.048;2023-07-13T10:00:28;2.00;;;1.17;;
10281;SDS011;5186;59.472;18.048;2023-07-13T10:03:02;3.30;;;1.30;;
10281;SDS011;5186;59.472;18.048;2023-07-13T10:05:28;3.90;;;1.53;;
10281;SDS011;5186;59.472;18.048;2023-07-13T10:08:09;3.87;;;1.20;;
10281;SDS011;5186;59.472;18.048;2023-07-13T10:10:43;3.10;;;1.00;;
10281;SDS011;5186;59.472;18.048;2023-07-13T10:13:29;4.17;;;1.20;;
10281;SDS011;5186;59.472;18.048;2023-07-13T10:16:02;3.57;;;1.20;;
10281;SDS011;5186;59.472;18.048;2023-07-13T10:18:38;2.90;;;1.40;;
10281;SDS011;5186;59.472;18.048;2023-07-13T10:21:13;3.47;;;1.20;;
10281;SDS011;5186;59.472;18.048;2023-07-13T10:23:41;2.03;;;1.10;;
10281;SDS011;5186;59.472;18.048;2023-07-13T10:26:17;4.40;;;1.10;;
10281;SDS011;5186;59.472;18.048;2023-07-13T10:28:47;2.40;;;1.33;;
10281;SDS011;5186;59.472;18.048;2023-07-13T10:31:18;2.83;;;1.00;;
10281;SDS011;5186;59.472;18.048;2023-07-13T10:33:44;3.13;;;1.20;;
10281;SDS011;5186;59.472;18.048;2023-07-13T10:36:53;4.87;;;1.40;;
10281;SDS011;5186;59.472;18.048;2023-07-13T10:39:05;2.67;;;1.20;;
10281;SDS011;5186;59.472;18.048;2023-07-13T10:41:36;3.97;;;1.40;;
10281;SDS011;5186;59.472;18.048;2023-07-13T10:44:05;2.87;;;1.40;;
10281;SDS011;5186;59.472;18.048;2023-07-13T10:46:38;2.23;;;1.07;;
10281;SDS011;5186;59.472;18.048;2023-07-13T10:49:05;2.43;;;1.20;;
10281;SDS011;5186;59.472;18.048;2023-07-13T10:51:33;3.93;;;1.23;;
10281;SDS011;5186;59.472;18.048;2023-07-13T10:54:18;2.23;;;0.90;;
10281;SDS011;5186;59.472;18.048;2023-07-13T10:57:37;2.00;;;1.00;;
10281;SDS011;5186;59.472;18.048;2023-07-13T10:59:38;3.90;;;1.20;;
10281;SDS011;5186;59.472;18.048;2023-07-13T11:04:41;2.00;;;0.97;;
10281;SDS011;5186;59.472;18.048;2023-07-13T11:07:11;4.63;;;1.20;;
10281;SDS011;5186;59.472;18.048;2023-07-13T11:09:44;1.63;;;1.00;;
10281;SDS011;5186;59.472;18.048;2023-07-13T11:19:54;3.37;;;1.03;;
10281;SDS011;5186;59.472;18.048;2023-07-13T11:25:41;3.47;;;1.20;;
10281;SDS011;5186;59.472;18.048;2023-07-13T11:33:56;3.37;;;1.00;;
10281;SDS011;5186;59.472;18.048;2023-07-13T11:36:19;3.20;;;1.10;;
10281;SDS011;5186;59.472;18.048;2023-07-13T11:38:55;2.77;;;0.90;;
10281;SDS011;5186;59.472;18.048;2023-07-13T11:41:45;5.03;;;1.20;;
10281;SDS011;5186;59.472;18.048;2023-07-13T11:44:20;3.90;;;1.07;;
10281;SDS011;5186;59.472;18.048;2023-07-13T11:46:48;5.10;;;1.33;;
10281;SDS011;5186;59.472;18.048;2023-07-13T11:49:23;2.90;;;1.30;;
10281;SDS011;5186;59.472;18.048;2023-07-13T11:51:51;3.50;;;0.97;;
10281;SDS011;5186;59.472;18.048;2023-07-13T11:54:28;3.97;;;1.13;;
10281;SDS011;5186;59.472;18.048;2023-07-13T11:56:56;1.00;;;0.87;;
10281;SDS011;5186;59.472;18.048;2023-07-13T11:59:37;3.17;;;1.17;;
10281;SDS011;5186;59.472;18.048;2023-07-13T12:02:08;3.43;;;1.10;;
10281;SDS011;5186;59.472;18.048;2023-07-13T12:04:58;2.13;;;1.10;;
10281;SDS011;5186;59.472;18.048;2023-07-13T12:07:27;2.40;;;0.90;;
10281;SDS011;5186;59.472;18.048;2023-07-13T12:09:59;4.73;;;0.90;;
10281;SDS011;5186;59.472;18.048;2023-07-13T12:12:36;4.83;;;1.30;;
10281;SDS011;5186;59.472;18.048;2023-07-13T12:15:05;2.13;;;0.80;;
10281;SDS011;5186;59.472;18.048;2023-07-13T12:17:34;3.03;;;0.90;;
10281;SDS011;5186;59.472;18.048;2023-07-13T12:20:03;2.67;;;1.03;;
10281;SDS011;5186;59.472;18.048;2023-07-13T12:22:45;1.20;;;0.93;;
10281;SDS011;5186;59.472;18.048;2023-07-13T12:25:12;1.93;;;0.93;;
10281;SDS011;5186;59.472;18.048;2023-07-13T12:27:38;2.17;;;1.10;;
10281;SDS011;5186;59.472;18.048;2023-07-13T12:30:15;2.17;;;1.10;;
10281;SDS011;5186;59.472;18.048;2023-07-13T12:32:55;2.10;;;0.87;;
10281;SDS011;5186;59.472;18.048;2023-07-13T12:35:46;5.10;;;1.00;;
10281;SDS011;5186;59.472;18.048;2023-07-13T12:38:14;0.80;;;0.80;;
10281;SDS011;5186;59.472;18.048;2023-07-13T12:40:41;3.27;;;1.00;;
10281;SDS011;5186;59.472;18.048;2023-07-13T12:43:13;3.63;;;1.00;;
10281;SDS011;5186;59.472;18.048;2023-07-13T12:45:54;3.63;;;1.10;;
10281;SDS011;5186;59.472;18.048;2023-07-13T12:48:20;3.37;;;0.90;;
10281;SDS011;5186;59.472;18.048;2023-07-13T12:50:47;3.10;;;1.10;;
10281;SDS011;5186;59.472;18.048;2023-07-13T12:53:15;1.50;;;0.90;;
10281;SDS011;5186;59.472;18.048;2023-07-13T12:55:48;2.97;;;1.20;;
10281;SDS011;5186;59.472;18.048;2023-07-13T12:58:30;4.40;;;1.10;;
10281;SDS011;5186;59.472;18.048;2023-07-13T13:01:01;2.10;;;0.90;;
10281;SDS011;5186;59.472;18.048;2023-07-13T13:03:32;1.97;;;1.10;;
10281;SDS011;5186;59.472;18.048;2023-07-13T13:06:17;4.73;;;1.33;;
10281;SDS011;5186;59.472;18.048;2023-07-13T13:08:58;2.90;;;1.10;;
10281;SDS011;5186;59.472;18.048;2023-07-13T13:11:25;2.47;;;1.10;;
10281;SDS011;5186;59.472;18.048;2023-07-13T13:13:52;3.53;;;1.10;;
10281;SDS011;5186;59.472;18.048;2023-07-13T13:16:29;4.27;;;1.27;;
10281;SDS011;5186;59.472;18.048;2023-07-13T13:19:13;4.97;;;1.23;;
10281;SDS011;5186;59.472;18.048;2023-07-13T13:21:50;2.47;;;1.10;;
10281;SDS011;5186;59.472;18.048;2023-07-13T13:24:18;2.73;;;1.00;;
10281;SDS011;5186;59.472;18.048;2023-07-13T13:26:49;2.33;;;0.90;;
10281;SDS011;5186;59.472;18.048;2023-07-13T13:29:18;1.73;;;1.00;;
10281;SDS011;5186;59.472;18.048;2023-07-13T13:31:50;3.87;;;1.10;;
10281;SDS011;5186;59.472;18.048;2023-07-13T13:34:18;3.27;;;0.80;;
10281;SDS011;5186;59.472;18.048;2023-07-13T13:36:44;1.60;;;1.10;;
10281;SDS011;5186;59.472;18.048;2023-07-13T13:39:45;4.33;;;1.20;;
10281;SDS011;5186;59.472;18.048;2023-07-13T13:42:04;3.60;;;1.43;;
10281;SDS011;5186;59.472;18.048;2023-07-13T13:44:30;1.60;;;0.93;;
10281;SDS011;5186;59.472;18.048;2023-07-13T13:46:55;2.17;;;1.00;;
10281;SDS011;5186;59.472;18.048;2023-07-13T13:49:23;1.90;;;1.40;;
10281;SDS011;5186;59.472;18.048;2023-07-13T13:51:50;2.63;;;1.20;;
10281;SDS011;5186;59.472;18.048;2023-07-13T13:54:18;2.67;;;0.90;;
10281;SDS011;5186;59.472;18.048;2023-07-13T13:56:49;2.80;;;0.90;;
10281;SDS011;5186;59.472;18.048;2023-07-13T13:59:16;3.00;;;1.07;;
10281;SDS011;5186;59.472;18.048;2023-07-13T14:01:42;1.63;;;1.20;;
10281;SDS011;5186;59.472;18.048;2023-07-13T14:04:19;2.43;;;1.03;;
10281;SDS011;5186;59.472;18.048;2023-07-13T14:06:46;1.90;;;1.00;;
10281;SDS011;5186;59.472;18.048;2023-07-13T14:09:12;2.90;;;0.93;;
10281;SDS011;5186;59.472;18.048;2023-07-13T14:11:40;2.43;;;1.10;;
10281;SDS011;5186;59.472;18.048;2023-07-13T14:14:08;2.10;;;1.00;;
10281;SDS011;5186;59.472;18.048;2023-07-13T14:16:55;1.77;;;0.90;;
10281;SDS011;5186;59.472;18.048;2023-07-13T14:19:21;2.13;;;0.80;;
10281;SDS011;5186;59.472;18.048;2023-07-13T14:21:47;2.43;;;1.10;;
10281;SDS011;5186;59.472;18.048;2023-07-13T14:24:14;3.23;;;0.90;;
10281;SDS011;5186;59.472;18.048;2023-07-13T14:26:40;5.03;;;1.20;;
10281;SDS011;5186;59.472;18.048;2023-07-13T14:29:13;1.87;;;1.10;;
10281;SDS011;5186;59.472;18.048;2023-07-13T14:31:43;2.43;;;1.00;;
10281;SDS011;5186;59.472;18.048;2023-07-13T14:34:10;2.13;;;1.00;;
10281;SDS011;5186;59.472;18.048;2023-07-13T14:36:38;6.00;;;1.13;;
10281;SDS011;5186;59.472;18.048;2023-07-13T14:39:20;3.00;;;0.80;;
10281;SDS011;5186;59.472;18.048;2023-07-13T14:41:49;2.73;;;0.70;;
10281;SDS011;5186;59.472;18.048;2023-07-13T14:44:17;3.47;;;0.90;;
10281;SDS011;5186;59.472;18.048;2023-07-13T14:46:46;1.53;;;1.00;;
10281;SDS011;5186;59.472;18.048;2023-07-13T14:49:27;1.50;;;0.90;;
10281;SDS011;5186;59.472;18.048;2023-07-13T14:54:45;1.97;;;1.20;;
10281;SDS011;5186;59.472;18.048;2023-07-13T14:57:18;3.73;;;1.10;;
10281;SDS011;5186;59.472;18.048;2023-07-13T14:59:45;3.27;;;1.00;;
10281;SDS011;5186;59.472;18.048;2023-07-13T15:04:49;3.10;;;1.00;;
10281;SDS011;5186;59.472;18.048;2023-07-13T15:07:14;3.57;;;1.00;;
10281;SDS011;5186;59.472;18.048;2023-07-13T15:09:42;2.87;;;1.00;;
10281;SDS011;5186;59.472;18.048;2023-07-13T15:12:08;3.20;;;1.17;;
10281;SDS011;5186;59.472;18.048;2023-07-13T15:14:34;3.13;;;0.83;;
10281;SDS011;5186;59.472;18.048;2023-07-13T15:16:59;2.63;;;1.00;;
10281;SDS011;5186;59.472;18.048;2023-07-13T15:19:25;3.00;;;0.90;;
10281;SDS011;5186;59.472;18.048;2023-07-13T15:21:52;1.50;;;0.87;;
10281;SDS011;5186;59.472;18.048;2023-07-13T15:24:19;2.57;;;1.10;;
10281;SDS011;5186;59.472;18.048;2023-07-13T15:26:46;1.87;;;0.90;;
10281;SDS011;5186;59.472;18.048;2023-07-13T15:31:45;2.63;;;0.93;;
10281;SDS011;5186;59.472;18.048;2023-07-13T15:34:12;3.03;;;1.20;;
10281;SDS011;5186;59.472;18.048;2023-07-13T15:36:41;4.90;;;1.20;;
10281;SDS011;5186;59.472;18.048;2023-07-13T15:39:06;2.83;;;1.20;;